Time;durP1;ratioP1;P1;durP2;ratioP2;P2;SDS_P1;SDS_P2;PMS_P1;PMS_P2;Temp;Humidity;BMP_temperature;BMP_pressure;BME280_temperature;BME280_humidity;BME280_pressure;Samples;Min_cycle;Max_cycle;Signal;HPM_P1;HPM_P2
2022/11/01 00:01:16;;;;;;;50.40;21.43;;;10.10;99.90;;;;;;5060317;28;20170;-61
2022/11/01 00:03:41;;;;;;;47.77;19.60;;;10.20;99.90;;;;;;5085070;28;20239;-61
2022/11/01 00:06:07;;;;;;;46.70;19.53;;;10.20;99.90;;;;;;5085197;28;20197;-61
2022/11/01 00:08:33;;;;;;;36.37;18.70;;;10.10;99.90;;;;;;5089604;28;20200;-61
2022/11/01 00:11:10;;;;;;;34.97;18.57;;;10.10;99.90;;;;;;5068217;28;20183;-61
2022/11/01 00:13:36;;;;;;;48.33;19.43;;;10.10;99.90;;;;;;5087914;28;20180;-61
2022/11/01 00:16:02;;;;;;;58.47;19.53;;;10.10;99.90;;;;;;5082106;28;20463;-62
2022/11/01 00:18:27;;;;;;;32.10;18.40;;;10.10;99.90;;;;;;5071199;28;20195;-61
2022/11/01 00:20:53;;;;;;;38.40;18.17;;;10.00;99.90;;;;;;5089880;28;20260;-61
2022/11/01 00:23:18;;;;;;;45.33;19.50;;;10.00;99.90;;;;;;5092104;28;20178;-61
2022/11/01 00:25:44;;;;;;;42.70;18.20;;;10.00;99.90;;;;;;5087995;28;20194;-60
2022/11/01 00:28:10;;;;;;;39.00;19.10;;;10.00;99.90;;;;;;5085035;28;20177;-61
2022/11/01 00:30:37;;;;;;;59.27;19.17;;;10.00;99.90;;;;;;5084377;28;20298;-61
2022/11/01 00:33:03;;;;;;;47.30;19.07;;;9.90;99.90;;;;;;5072704;28;20180;-60
2022/11/01 00:35:30;;;;;;;38.77;19.57;;;9.90;99.90;;;;;;5093214;28;20506;-60
2022/11/01 00:37:57;;;;;;;39.87;18.50;;;9.90;99.90;;;;;;5086254;28;20431;-61
2022/11/01 00:40:23;;;;;;;50.30;20.00;;;9.90;99.90;;;;;;5086292;28;20439;-60
2022/11/01 00:42:48;;;;;;;42.77;19.37;;;9.90;99.90;;;;;;5086746;28;20424;-61
2022/11/01 00:45:14;;;;;;;60.00;19.30;;;9.90;99.90;;;;;;5090533;28;20201;-62
2022/11/01 00:47:40;;;;;;;43.20;19.07;;;9.80;99.90;;;;;;5090209;28;20171;-60
2022/11/01 00:50:06;;;;;;;85.60;19.60;;;9.80;99.90;;;;;;5085382;28;20252;-61
2022/11/01 00:52:31;;;;;;;45.10;18.40;;;9.80;99.90;;;;;;5073220;28;20637;-60
2022/11/01 00:54:57;;;;;;;36.93;18.83;;;9.80;99.90;;;;;;5078070;28;20431;-61
2022/11/01 00:57:22;;;;;;;36.53;18.23;;;9.70;99.90;;;;;;5083928;28;20205;-61
2022/11/01 00:59:48;;;;;;;34.80;18.00;;;9.70;99.90;;;;;;5076839;28;20202;-61
2022/11/01 01:02:14;;;;;;;44.80;19.60;;;9.70;99.90;;;;;;5067018;28;20182;-60
2022/11/01 01:04:42;;;;;;;45.73;19.27;;;9.70;99.90;;;;;;5086672;28;20579;-61
2022/11/01 01:07:08;;;;;;;33.70;19.13;;;9.70;99.90;;;;;;5089551;28;20209;-61
2022/11/01 01:09:34;;;;;;;40.93;17.60;;;9.80;99.90;;;;;;5089111;28;20428;-61
2022/11/01 01:12:00;;;;;;;31.70;16.23;;;9.80;99.90;;;;;;5085220;28;20477;-60
2022/11/01 01:14:27;;;;;;;59.70;19.00;;;9.80;99.90;;;;;;5082564;28;20170;-61
2022/11/01 01:16:52;;;;;;;47.77;17.60;;;9.80;99.90;;;;;;5083329;28;20452;-61
2022/11/01 01:19:19;;;;;;;33.83;17.77;;;9.80;99.90;;;;;;5076182;28;20486;-60
2022/11/01 01:21:45;;;;;;;30.67;15.70;;;9.70;99.90;;;;;;5090660;28;20711;-59
2022/11/01 01:24:10;;;;;;;23.90;14.47;;;9.70;99.90;;;;;;5089044;28;20467;-61
2022/11/01 01:26:36;;;;;;;25.30;15.70;;;9.70;99.90;;;;;;5076966;28;20503;-60
2022/11/01 01:29:02;;;;;;;22.37;15.30;;;9.70;99.90;;;;;;5079845;28;20171;-61
2022/11/01 01:31:27;;;;;;;23.73;15.40;;;9.70;99.90;;;;;;5066430;28;20261;-61
2022/11/01 01:33:53;;;;;;;30.23;17.03;;;9.70;99.90;;;;;;5070485;28;20766;-60
2022/11/01 01:36:19;;;;;;;54.17;17.60;;;9.70;99.90;;;;;;5076548;28;20267;-61
2022/11/01 01:38:44;;;;;;;69.03;19.20;;;9.70;99.90;;;;;;5085518;28;20181;-61
2022/11/01 01:43:54;;;;;;;100.30;17.83;;;9.70;99.90;;;;;;5081437;28;20205;-61
2022/11/01 01:46:20;;;;;;;26.97;14.77;;;9.70;99.90;;;;;;5081495;28;20495;-61
2022/11/01 01:48:49;;;;;;;37.07;15.10;;;9.70;99.90;;;;;;5083245;28;20166;-61
2022/11/01 01:51:18;;;;;;;24.10;14.80;;;9.70;99.90;;;;;;5083844;28;20220;-61
2022/11/01 01:53:49;;;;;;;27.40;16.57;;;9.70;99.90;;;;;;5075740;28;20431;-60
2022/11/01 01:56:28;;;;;;;25.33;15.40;;;9.70;99.90;;;;;;5087579;28;20515;-61
2022/11/01 01:59:08;;;;;;;27.27;15.50;;;9.70;99.90;;;;;;5085758;28;20512;-60
2022/11/01 02:01:36;;;;;;;52.63;18.00;;;9.70;99.90;;;;;;5113945;22;20537;-57
2022/11/01 02:04:04;;;;;;;33.07;15.83;;;9.70;99.90;;;;;;5104005;28;20484;-59
2022/11/01 02:06:32;;;;;;;25.50;16.53;;;9.70;99.90;;;;;;5102070;28;20491;-56
2022/11/01 02:09:00;;;;;;;25.70;15.67;;;9.70;99.90;;;;;;5087747;28;20418;-56
2022/11/01 02:11:26;;;;;;;24.77;15.80;;;9.60;99.90;;;;;;5113076;27;20545;-56
2022/11/01 02:13:52;;;;;;;30.17;16.13;;;9.60;99.90;;;;;;5122744;27;20951;-58
2022/11/01 02:16:51;;;;;;;31.03;16.20;;;9.60;99.90;;;;;;5128622;27;20433;-58
2022/11/01 02:19:25;;;;;;;31.20;17.00;;;9.60;99.90;;;;;;5113340;27;20940;-57
2022/11/01 02:22:09;;;;;;;26.17;16.03;;;9.50;99.90;;;;;;5121369;27;20965;-58
2022/11/01 02:24:43;;;;;;;37.83;17.67;;;9.50;99.90;;;;;;5121740;27;20430;-54
2022/11/01 02:27:09;;;;;;;24.50;15.57;;;9.50;99.90;;;;;;5115806;27;20895;-56
2022/11/01 02:29:44;;;;;;;28.43;17.20;;;9.50;99.90;;;;;;5121927;27;20890;-54
2022/11/01 02:32:45;;;;;;;34.63;15.97;;;9.40;99.90;;;;;;5117340;27;20793;-58
2022/11/01 02:35:41;;;;;;;27.53;16.17;;;9.40;99.90;;;;;;5119714;27;21034;-56
2022/11/01 02:38:32;;;;;;;30.70;16.63;;;9.40;99.90;;;;;;5125975;27;20422;-53
2022/11/01 02:41:21;;;;;;;25.67;17.13;;;9.40;99.90;;;;;;5124938;27;20418;-56
2022/11/01 02:44:01;;;;;;;21.30;16.00;;;9.50;99.90;;;;;;5118924;27;20463;-56
2022/11/01 02:49:19;;;;;;;24.63;16.00;;;9.50;99.90;;;;;;5126801;27;20436;-55
2022/11/01 02:51:45;;;;;;;34.93;15.90;;;9.50;99.90;;;;;;5115253;27;21452;-57
2022/11/01 02:54:26;;;;;;;23.70;13.27;;;9.50;99.90;;;;;;5119450;27;20970;-56
2022/11/01 02:56:51;;;;;;;24.67;14.30;;;9.50;99.90;;;;;;5105258;27;20850;-57
2022/11/01 02:59:22;;;;;;;21.60;15.50;;;9.50;99.90;;;;;;5125009;27;20501;-56
2022/11/01 03:02:05;;;;;;;23.73;15.03;;;9.50;99.90;;;;;;5116918;27;20342;-59
2022/11/01 03:04:32;;;;;;;31.37;15.33;;;9.50;99.90;;;;;;5125385;27;20500;-57
2022/11/01 03:07:00;;;;;;;23.63;15.87;;;9.50;99.90;;;;;;5122030;27;21057;-57
2022/11/01 03:09:27;;;;;;;24.37;15.20;;;9.50;99.90;;;;;;5123124;27;20433;-57
2022/11/01 03:12:03;;;;;;;25.00;16.37;;;9.50;99.90;;;;;;5118340;27;21018;-58
2022/11/01 03:14:40;;;;;;;23.27;15.43;;;9.50;99.90;;;;;;5121395;27;20422;-59
2022/11/01 03:17:36;;;;;;;24.43;15.40;;;9.50;99.90;;;;;;5103262;27;20536;-57
2022/11/01 03:20:12;;;;;;;21.60;14.93;;;9.50;99.90;;;;;;5117530;27;20508;-57
2022/11/01 03:22:37;;;;;;;23.20;15.50;;;9.60;99.90;;;;;;5122746;27;20526;-58
2022/11/01 03:27:59;;;;;;;24.50;15.80;;;9.60;99.90;;;;;;5112314;27;20525;-57
2022/11/01 03:30:28;;;;;;;24.03;15.17;;;9.60;99.90;;;;;;5124468;27;20464;-56
2022/11/01 03:32:56;;;;;;;28.80;15.47;;;9.60;99.90;;;;;;5105608;27;20533;-57
2022/11/01 03:35:26;;;;;;;23.60;15.83;;;9.60;99.90;;;;;;5115267;27;20917;-56
2022/11/01 03:37:55;;;;;;;21.83;14.60;;;9.60;99.90;;;;;;5122496;27;20488;-57
2022/11/01 03:40:23;;;;;;;19.83;14.10;;;9.60;99.90;;;;;;5119447;27;20426;-56
2022/11/01 03:42:52;;;;;;;20.70;13.50;;;9.60;99.90;;;;;;5125871;27;20506;-57
2022/11/01 03:45:23;;;;;;;19.33;13.10;;;9.60;99.90;;;;;;5128113;27;20406;-58
2022/11/01 03:47:49;;;;;;;18.93;12.67;;;9.60;99.90;;;;;;5106953;27;20907;-56
2022/11/01 03:50:21;;;;;;;17.47;13.00;;;9.60;99.90;;;;;;5116572;27;20517;-57
2022/11/01 03:52:47;;;;;;;18.23;12.53;;;9.50;99.90;;;;;;5115545;27;20866;-57
2022/11/01 03:55:18;;;;;;;16.00;12.60;;;9.50;99.90;;;;;;5128336;27;20425;-57
2022/11/01 03:57:44;;;;;;;18.73;12.83;;;9.50;99.90;;;;;;5105783;28;20940;-56
2022/11/01 04:00:14;;;;;;;16.97;12.77;;;9.50;99.90;;;;;;5106541;28;20426;-55
2022/11/01 04:02:40;;;;;;;18.73;13.27;;;9.50;99.90;;;;;;5131786;28;20469;-57
2022/11/01 04:05:06;;;;;;;17.87;12.40;;;9.50;99.90;;;;;;5108696;28;20458;-57
2022/11/01 04:07:32;;;;;;;17.57;13.40;;;9.50;99.90;;;;;;5124912;28;20469;-57
2022/11/01 04:09:58;;;;;;;15.83;11.70;;;9.50;99.90;;;;;;5127616;28;20456;-57
2022/11/01 04:12:23;;;;;;;15.07;11.37;;;9.50;99.90;;;;;;5110563;28;20257;-57
2022/11/01 04:20:32;;;;;;;14.17;10.73;;;9.50;99.90;;;;;;5120234;28;20506;-57
2022/11/01 04:23:02;;;;;;;13.03;10.50;;;9.50;99.90;;;;;;5118575;28;20550;-57
2022/11/01 04:25:29;;;;;;;14.23;10.93;;;9.50;99.90;;;;;;5119299;28;20415;-57
2022/11/01 04:27:55;;;;;;;13.97;10.60;;;9.50;99.90;;;;;;5125096;28;20506;-57
2022/11/01 04:30:25;;;;;;;15.20;11.30;;;9.50;99.90;;;;;;5123611;28;20458;-60
2022/11/01 04:32:51;;;;;;;16.67;11.80;;;9.50;99.90;;;;;;5115923;28;20525;-56
2022/11/01 04:35:17;;;;;;;14.07;11.07;;;9.60;99.90;;;;;;5125798;28;20513;-57
2022/11/01 04:37:43;;;;;;;14.90;11.30;;;9.60;99.90;;;;;;5123259;28;20246;-57
2022/11/01 04:40:10;;;;;;;17.63;12.07;;;9.60;99.90;;;;;;5124929;28;20417;-55
2022/11/01 04:42:36;;;;;;;16.13;10.70;;;9.50;99.90;;;;;;5119598;28;20204;-54
2022/11/01 04:45:03;;;;;;;18.23;12.00;;;9.60;99.90;;;;;;5127352;28;20433;-58
2022/11/01 04:47:29;;;;;;;14.47;11.63;;;9.60;99.90;;;;;;5119456;28;20853;-57
2022/11/01 04:49:54;;;;;;;16.93;11.60;;;9.60;99.90;;;;;;5122071;28;20430;-56
2022/11/01 04:52:20;;;;;;;17.17;12.17;;;9.60;99.90;;;;;;5116727;28;20199;-57
2022/11/01 04:54:46;;;;;;;20.20;12.17;;;9.60;99.90;;;;;;5113444;28;20164;-57
2022/11/01 04:57:24;;;;;;;16.80;11.90;;;9.60;99.90;;;;;;5124888;28;21012;-57
2022/11/01 04:59:51;;;;;;;17.00;11.10;;;9.60;99.90;;;;;;5117724;28;20207;-57
2022/11/01 05:02:18;;;;;;;21.00;12.17;;;9.60;99.90;;;;;;5120500;28;20449;-56
2022/11/01 05:04:43;;;;;;;13.37;10.60;;;9.60;99.90;;;;;;5096074;27;20790;-56
2022/11/01 05:07:09;;;;;;;17.10;11.80;;;9.60;99.90;;;;;;5120053;27;20617;-57
2022/11/01 05:09:34;;;;;;;14.93;10.17;;;9.60;99.90;;;;;;5119304;27;20219;-56
2022/11/01 05:12:00;;;;;;;14.80;11.03;;;9.60;99.90;;;;;;5123230;27;20204;-57
2022/11/01 05:14:26;;;;;;;16.87;11.50;;;9.60;99.90;;;;;;5122176;27;20169;-58
2022/11/01 05:16:55;;;;;;;15.43;10.73;;;9.60;99.90;;;;;;5124347;27;20634;-57
2022/11/01 05:19:20;;;;;;;14.50;10.40;;;9.60;99.90;;;;;;5122400;27;20169;-57
2022/11/01 05:21:46;;;;;;;15.80;11.60;;;9.60;99.90;;;;;;5120265;27;20998;-58
2022/11/01 05:24:12;;;;;;;16.37;12.57;;;9.60;99.90;;;;;;5124374;27;20217;-58
2022/11/01 05:26:37;;;;;;;13.97;10.80;;;9.60;99.90;;;;;;5126643;27;20224;-55
2022/11/01 05:29:03;;;;;;;15.73;11.90;;;9.60;99.90;;;;;;5120285;27;20180;-59
2022/11/01 05:31:29;;;;;;;12.13;10.33;;;9.60;99.90;;;;;;5122945;27;20184;-58
2022/11/01 05:33:54;;;;;;;14.10;11.90;;;9.60;99.90;;;;;;5121327;27;20165;-58
2022/11/01 05:36:20;;;;;;;16.47;11.73;;;9.60;99.90;;;;;;5124548;27;20824;-57
2022/11/01 05:38:45;;;;;;;14.33;10.80;;;9.60;99.90;;;;;;5123965;27;20177;-56
2022/11/01 05:41:11;;;;;;;14.70;10.60;;;9.60;99.90;;;;;;5126965;27;20611;-58
2022/11/01 05:43:36;;;;;;;12.83;10.67;;;9.50;99.90;;;;;;5120803;27;20253;-55
2022/11/01 05:46:06;;;;;;;13.27;10.27;;;9.60;99.90;;;;;;5108332;27;20283;-56
2022/11/01 05:48:32;;;;;;;12.83;9.93;;;9.60;99.90;;;;;;5127697;27;20292;-57
2022/11/01 05:50:58;;;;;;;12.50;9.87;;;9.60;99.90;;;;;;5129185;27;20438;-56
2022/11/01 05:53:24;;;;;;;14.70;10.07;;;9.60;99.90;;;;;;5121842;27;20430;-56
2022/11/01 05:55:50;;;;;;;12.87;10.00;;;9.60;99.90;;;;;;5129987;27;20501;-56
2022/11/01 05:58:16;;;;;;;12.53;10.40;;;9.60;99.90;;;;;;5127706;27;20189;-57
2022/11/01 06:00:41;;;;;;;13.20;9.83;;;9.60;99.90;;;;;;5123288;27;20263;-59
2022/11/01 06:03:07;;;;;;;13.40;9.60;;;9.60;99.90;;;;;;5124329;27;21015;-54
2022/11/01 06:05:33;;;;;;;14.97;10.30;;;9.60;99.90;;;;;;5117287;27;20184;-58
2022/11/01 06:08:03;;;;;;;15.57;10.80;;;9.60;99.90;;;;;;5119802;27;20176;-58
2022/11/01 06:10:29;;;;;;;13.93;11.00;;;9.60;99.90;;;;;;5126479;27;20517;-55
2022/11/01 06:12:55;;;;;;;14.60;11.77;;;9.60;99.90;;;;;;5121766;27;20458;-57
2022/11/01 06:15:21;;;;;;;15.93;11.77;;;9.60;99.90;;;;;;5128576;27;20483;-56
2022/11/01 06:17:46;;;;;;;15.60;12.33;;;9.60;99.90;;;;;;5122636;27;20427;-55
2022/11/01 06:20:12;;;;;;;16.57;11.87;;;9.60;99.90;;;;;;5124793;27;20263;-56
2022/11/01 06:22:38;;;;;;;17.60;11.87;;;9.60;99.90;;;;;;5125766;27;20207;-56
2022/11/01 06:25:05;;;;;;;16.27;12.07;;;9.60;99.90;;;;;;5122314;27;20677;-58
2022/11/01 06:27:31;;;;;;;18.03;11.93;;;9.60;99.90;;;;;;5126939;27;20480;-58
2022/11/01 06:29:57;;;;;;;14.40;11.10;;;9.60;99.90;;;;;;5117302;27;20523;-60
2022/11/01 06:32:22;;;;;;;16.33;12.00;;;9.60;99.90;;;;;;5118267;27;20524;-57
2022/11/01 06:34:48;;;;;;;17.97;12.80;;;9.60;99.90;;;;;;5124538;27;20304;-57
2022/11/01 06:37:14;;;;;;;14.23;11.30;;;9.60;99.90;;;;;;5126915;27;20168;-57
2022/11/01 06:39:39;;;;;;;15.50;11.17;;;9.60;99.90;;;;;;5126208;27;20689;-58
2022/11/01 06:42:05;;;;;;;13.63;9.57;;;9.50;99.90;;;;;;5122603;27;20287;-58
2022/11/01 06:44:31;;;;;;;13.00;9.63;;;9.50;99.90;;;;;;5126376;27;20180;-56
2022/11/01 06:46:56;;;;;;;12.67;9.93;;;9.50;99.90;;;;;;5122760;27;20570;-58
2022/11/01 06:49:22;;;;;;;12.60;10.13;;;9.50;99.90;;;;;;5124959;27;20169;-57
2022/11/01 06:51:48;;;;;;;14.10;10.23;;;9.60;99.90;;;;;;5118916;27;20506;-58
2022/11/01 06:54:13;;;;;;;16.97;10.40;;;9.70;99.90;;;;;;5112892;27;20182;-58
2022/11/01 06:56:39;;;;;;;13.70;10.70;;;9.70;99.90;;;;;;5128376;27;20172;-57
2022/11/01 06:59:05;;;;;;;13.53;9.73;;;9.80;99.90;;;;;;5124645;27;20252;-56
2022/11/01 07:01:30;;;;;;;14.53;9.30;;;9.80;99.90;;;;;;5115094;27;20287;-57
2022/11/01 07:03:56;;;;;;;17.77;10.60;;;9.80;99.90;;;;;;5120377;27;20820;-58
2022/11/01 07:06:29;;;;;;;14.23;11.10;;;9.90;99.90;;;;;;5123673;27;20351;-56
2022/11/01 07:08:55;;;;;;;17.30;12.20;;;10.00;99.90;;;;;;5117403;27;20528;-57
2022/11/01 07:11:21;;;;;;;13.57;10.90;;;10.10;99.90;;;;;;5117050;27;20515;-56
2022/11/01 07:13:47;;;;;;;13.63;9.77;;;10.10;99.90;;;;;;5121740;27;20422;-59
2022/11/01 07:16:13;;;;;;;12.70;9.10;;;10.20;99.90;;;;;;5128594;27;20417;-57
2022/11/01 07:18:38;;;;;;;11.70;9.60;;;10.20;99.90;;;;;;5118293;27;20176;-56
2022/11/01 07:21:05;;;;;;;11.93;8.60;;;10.30;99.90;;;;;;5121269;27;20554;-56
2022/11/01 07:23:31;;;;;;;17.40;10.87;;;10.30;99.90;;;;;;5121698;27;20550;-55
2022/11/01 07:25:57;;;;;;;18.70;10.70;;;10.40;99.90;;;;;;5122596;27;20773;-57
2022/11/01 07:28:23;;;;;;;15.80;10.13;;;10.50;99.90;;;;;;5114122;27;20562;-56
2022/11/01 07:30:53;;;;;;;12.80;9.33;;;10.60;99.90;;;;;;5096005;27;20177;-57
2022/11/01 07:33:19;;;;;;;14.33;9.80;;;10.60;99.90;;;;;;5120567;27;20430;-59
2022/11/01 07:35:46;;;;;;;11.73;7.90;;;10.70;99.90;;;;;;5126051;27;20506;-56
2022/11/01 07:38:11;;;;;;;13.27;8.87;;;10.80;99.90;;;;;;5115545;27;20176;-54
2022/11/01 07:40:37;;;;;;;17.80;9.10;;;10.90;99.90;;;;;;5115865;27;20422;-55
2022/11/01 07:43:04;;;;;;;13.83;9.73;;;11.00;99.90;;;;;;5119564;27;20211;-57
2022/11/01 07:45:32;;;;;;;14.97;9.50;;;11.20;99.90;;;;;;5119201;27;20195;-57
2022/11/01 07:48:04;;;;;;;15.97;10.17;;;11.30;99.90;;;;;;5101343;27;20478;-57
2022/11/01 07:50:31;;;;;;;17.10;9.47;;;11.40;99.90;;;;;;5113730;27;21111;-60
2022/11/01 07:53:07;;;;;;;14.70;9.33;;;11.40;99.90;;;;;;5114677;27;20521;-57
2022/11/01 07:55:34;;;;;;;17.87;10.17;;;11.50;99.90;;;;;;5120866;27;20444;-55
2022/11/01 07:58:00;;;;;;;16.87;10.10;;;11.50;99.90;;;;;;5114032;27;20426;-56
2022/11/01 08:00:26;;;;;;;16.20;10.93;;;11.60;99.90;;;;;;5118318;27;20416;-56
2022/11/01 08:02:57;;;;;;;13.47;9.90;;;11.60;99.90;;;;;;5118764;28;20203;-55
2022/11/01 08:05:23;;;;;;;14.30;10.20;;;11.60;99.90;;;;;;5113065;28;20426;-55
2022/11/01 08:07:49;;;;;;;15.03;10.57;;;11.70;99.90;;;;;;5118836;28;20457;-58
2022/11/01 08:10:14;;;;;;;14.37;9.90;;;11.70;99.90;;;;;;5119214;28;20579;-55
2022/11/01 08:12:40;;;;;;;14.90;9.50;;;11.70;99.90;;;;;;5119028;27;20547;-57
2022/11/01 08:15:06;;;;;;;19.70;10.30;;;11.80;99.90;;;;;;5119025;28;20172;-55
2022/11/01 08:17:32;;;;;;;15.93;10.50;;;11.80;99.90;;;;;;5113632;28;20177;-54
2022/11/01 08:19:58;;;;;;;14.70;9.23;;;11.80;99.90;;;;;;5112622;28;20425;-54
2022/11/01 08:22:24;;;;;;;17.20;10.20;;;11.80;99.90;;;;;;5117999;28;20457;-57
2022/11/01 08:24:49;;;;;;;15.87;10.67;;;11.90;99.90;;;;;;5117731;28;20200;-56
2022/11/01 08:27:15;;;;;;;15.73;10.07;;;11.90;99.90;;;;;;5119123;28;20203;-54
2022/11/01 08:29:40;;;;;;;15.47;10.60;;;12.00;99.90;;;;;;5114392;28;20494;-54
2022/11/01 08:32:06;;;;;;;15.00;9.43;;;12.00;99.90;;;;;;5115314;28;21145;-55
2022/11/01 08:34:32;;;;;;;18.40;10.67;;;12.10;99.90;;;;;;5114510;28;20204;-56
2022/11/01 08:36:57;;;;;;;18.17;12.40;;;12.20;99.90;;;;;;5118417;28;20300;-55
2022/11/01 08:39:24;;;;;;;13.20;9.73;;;12.20;99.90;;;;;;5116714;28;20663;-56
2022/11/01 08:41:50;;;;;;;24.50;10.93;;;12.30;99.90;;;;;;5117788;27;20801;-56
2022/11/01 08:44:17;;;;;;;14.37;9.43;;;12.30;99.90;;;;;;5125573;27;20445;-54
2022/11/01 08:46:43;;;;;;;11.47;8.60;;;12.30;99.90;;;;;;5121255;27;20270;-57
2022/11/01 08:49:10;;;;;;;12.90;7.80;;;12.40;99.90;;;;;;5108899;27;20422;-56
2022/11/01 08:51:37;;;;;;;10.33;7.90;;;12.40;99.90;;;;;;5123784;27;20475;-57
2022/11/01 08:54:04;;;;;;;13.07;8.13;;;12.40;99.90;;;;;;5120155;27;20425;-55
2022/11/01 08:56:29;;;;;;;13.90;8.77;;;12.40;99.90;;;;;;5121523;27;20418;-55
2022/11/01 08:58:56;;;;;;;9.97;7.67;;;12.40;99.90;;;;;;5122265;27;20421;-53
2022/11/01 09:01:25;;;;;;;13.13;8.47;;;12.40;99.90;;;;;;5125886;27;20204;-55
2022/11/01 09:03:52;;;;;;;9.97;7.50;;;12.40;99.90;;;;;;5121575;27;20422;-57
2022/11/01 09:06:17;;;;;;;9.40;7.13;;;12.50;99.90;;;;;;5120865;27;20492;-56
2022/11/01 09:08:43;;;;;;;18.77;6.90;;;12.50;99.90;;;;;;5121146;27;20455;-55
2022/11/01 09:11:09;;;;;;;8.73;6.13;;;12.60;99.90;;;;;;5118629;27;20172;-53
2022/11/01 09:13:34;;;;;;;6.80;5.70;;;12.60;99.90;;;;;;5120864;27;20175;-54
2022/11/01 09:16:09;;;;;;;7.60;4.90;;;12.60;99.90;;;;;;5123466;27;20188;-55
2022/11/01 09:18:34;;;;;;;5.60;4.40;;;12.60;99.90;;;;;;5104774;27;20176;-55
2022/11/01 09:21:00;;;;;;;5.10;4.33;;;12.70;99.90;;;;;;5121076;27;20453;-55
2022/11/01 09:23:26;;;;;;;10.90;5.30;;;12.70;99.90;;;;;;5118618;27;20177;-53
2022/11/01 09:25:52;;;;;;;5.90;4.40;;;12.70;99.90;;;;;;5119153;27;20794;-56
2022/11/01 09:28:19;;;;;;;8.40;5.20;;;12.80;99.90;;;;;;5114039;27;20165;-56
2022/11/01 09:30:45;;;;;;;7.03;4.93;;;12.80;99.90;;;;;;5115986;27;21824;-55
2022/11/01 09:33:10;;;;;;;10.93;4.80;;;12.90;99.90;;;;;;5120963;27;20548;-54
2022/11/01 09:35:36;;;;;;;8.67;4.40;;;12.90;99.90;;;;;;5112231;22;20498;-61
2022/11/01 09:38:02;;;;;;;8.80;4.63;;;13.00;99.90;;;;;;5085939;28;21757;-61
2022/11/01 09:40:34;;;;;;;7.20;4.73;;;13.00;99.90;;;;;;5085943;28;20686;-61
2022/11/01 09:43:02;;;;;;;7.40;3.97;;;13.10;99.90;;;;;;5083171;28;20419;-60
2022/11/01 09:45:31;;;;;;;5.00;4.20;;;13.10;99.90;;;;;;5102197;28;20929;-60
2022/11/01 09:47:58;;;;;;;6.67;4.50;;;13.20;99.90;;;;;;5085906;27;20575;-61
2022/11/01 09:50:36;;;;;;;8.50;5.33;;;13.30;99.90;;;;;;5105220;28;20427;-61
2022/11/01 09:53:07;;;;;;;10.90;5.30;;;13.40;99.90;;;;;;5098196;28;20479;-62
2022/11/01 09:56:09;;;;;;;14.80;6.20;;;13.40;99.90;;;;;;5081992;28;20451;-61
2022/11/01 09:58:37;;;;;;;10.40;5.40;;;13.50;99.90;;;;;;5101542;28;20417;-61
2022/11/01 10:01:18;;;;;;;6.90;5.23;;;13.60;99.90;;;;;;5090231;28;20461;-62
2022/11/01 10:03:53;;;;;;;6.23;4.80;;;13.70;99.90;;;;;;5079686;28;20504;-61
2022/11/01 10:06:24;;;;;;;7.00;4.80;;;13.80;99.90;;;;;;5100318;27;20463;-61
2022/11/01 10:08:49;;;;;;;7.93;4.40;;;14.00;99.90;;;;;;5105842;27;20951;-61
2022/11/01 10:11:18;;;;;;;8.63;4.30;;;14.10;99.90;;;;;;5104209;27;20426;-61
2022/11/01 10:14:00;;;;;;;5.00;4.03;;;14.20;99.90;;;;;;5096308;28;20660;-61
2022/11/01 10:16:42;;;;;;;5.57;4.23;;;14.30;99.90;;;;;;5102911;28;20422;-62
2022/11/01 10:19:17;;;;;;;4.67;3.80;;;14.40;99.90;;;;;;5104145;28;20426;-61
2022/11/01 10:21:51;;;;;;;3.93;3.40;;;14.50;99.90;;;;;;5099772;28;20495;-62
2022/11/01 10:24:33;;;;;;;5.47;3.60;;;14.60;99.90;;;;;;5101247;27;22074;-58
2022/11/01 10:27:04;;;;;;;7.43;3.20;;;14.70;99.90;;;;;;5105895;28;20517;-61
2022/11/01 10:29:48;;;;;;;3.90;2.70;;;14.80;99.90;;;;;;5107685;27;20476;-61
2022/11/01 10:32:26;;;;;;;4.50;2.53;;;14.90;99.90;;;;;;5103401;28;20419;-60
2022/11/01 10:34:53;;;;;;;5.80;3.63;;;15.00;99.90;;;;;;5104252;27;20894;-61
2022/11/01 10:37:22;;;;;;;4.40;2.80;;;15.00;99.90;;;;;;5104355;28;20525;-60
2022/11/01 10:39:47;;;;;;;7.20;2.57;;;15.00;99.90;;;;;;5092410;28;20415;-61
2022/11/01 10:42:15;;;;;;;5.53;3.23;;;15.00;99.90;;;;;;5101304;28;20422;-61
2022/11/01 10:45:07;;;;;;;6.43;3.27;;;15.00;99.90;;;;;;5105326;28;20659;-61
2022/11/01 10:47:33;;;;;;;5.80;3.57;;;15.00;99.90;;;;;;5092410;27;20471;-60
2022/11/01 10:50:02;;;;;;;6.50;2.87;;;14.90;99.90;;;;;;5100209;27;20992;-59
2022/11/01 10:52:32;;;;;;;5.17;3.10;;;14.90;99.90;;;;;;5096675;27;20205;-56
2022/11/01 10:55:00;;;;;;;3.67;2.90;;;14.90;99.90;;;;;;5104753;27;20567;-58
2022/11/01 10:57:37;;;;;;;2.67;2.47;;;15.00;99.90;;;;;;5100226;28;20434;-62
2022/11/01 11:00:05;;;;;;;2.80;2.50;;;15.00;99.90;;;;;;5105850;27;20426;-60
2022/11/01 11:02:33;;;;;;;5.40;3.07;;;15.00;99.90;;;;;;5094575;28;20563;-61
2022/11/01 11:04:58;;;;;;;3.57;2.60;;;15.00;99.90;;;;;;5104137;28;20477;-62
2022/11/01 11:07:29;;;;;;;4.60;2.57;;;15.00;99.90;;;;;;5100567;28;20470;-60
2022/11/01 11:09:55;;;;;;;4.10;2.50;;;15.00;99.90;;;;;;5111751;27;20188;-62
2022/11/01 11:12:22;;;;;;;3.63;2.60;;;15.00;99.90;;;;;;5101321;28;20919;-61
2022/11/01 11:14:57;;;;;;;5.10;2.57;;;15.00;99.90;;;;;;5106523;28;20517;-62
2022/11/01 11:17:41;;;;;;;4.53;3.00;;;15.00;99.90;;;;;;5107708;27;20437;-60
2022/11/01 11:20:10;;;;;;;6.37;3.40;;;15.00;99.90;;;;;;5106444;28;20442;-61
2022/11/01 11:22:41;;;;;;;5.20;3.40;;;15.10;99.90;;;;;;5103473;27;20810;-61
2022/11/01 11:25:15;;;;;;;4.67;3.80;;;15.10;99.90;;;;;;5100765;28;20496;-62
2022/11/01 11:27:48;;;;;;;4.93;3.30;;;15.20;99.90;;;;;;5101170;28;20464;-61
2022/11/01 11:30:33;;;;;;;5.33;3.80;;;15.20;99.90;;;;;;5102345;28;20518;-62
2022/11/01 11:33:01;;;;;;;4.93;3.60;;;15.30;99.90;;;;;;5103653;27;20419;-61
2022/11/01 11:35:29;;;;;;;7.53;3.60;;;15.40;99.90;;;;;;5100930;27;20450;-61
2022/11/01 11:38:02;;;;;;;6.30;3.57;;;15.40;99.90;;;;;;5104129;28;20489;-61
2022/11/01 11:40:44;;;;;;;7.67;3.37;;;15.50;99.90;;;;;;5098503;28;20876;-61
2022/11/01 11:43:30;;;;;;;5.70;3.87;;;15.60;99.90;;;;;;5100717;28;20434;-61
2022/11/01 11:46:14;;;;;;;5.50;4.13;;;15.70;99.90;;;;;;5095472;28;20451;-62
2022/11/01 11:48:57;;;;;;;8.10;4.63;;;16.00;99.90;;;;;;5102212;28;20907;-62
2022/11/01 11:51:25;;;;;;;9.77;5.00;;;16.20;99.90;;;;;;5102076;28;20511;-63
2022/11/01 11:54:21;;;;;;;7.73;4.77;;;16.40;99.90;;;;;;5100568;28;20431;-62
2022/11/01 11:56:51;;;;;;;8.43;5.13;;;16.50;99.90;;;;;;5097678;28;20802;-62
2022/11/01 11:59:31;;;;;;;9.43;5.17;;;16.50;99.90;;;;;;5081761;28;20468;-62
2022/11/01 12:01:59;;;;;;;11.77;6.00;;;16.60;99.90;;;;;;5094764;28;20442;-61
2022/11/01 12:04:30;;;;;;;12.27;5.33;;;16.50;99.90;;;;;;5096886;28;20451;-58
2022/11/01 12:06:57;;;;;;;9.83;5.13;;;16.50;99.90;;;;;;5093744;28;21865;-59
2022/11/01 12:09:45;;;;;;;7.17;4.90;;;16.40;99.90;;;;;;5100355;28;20474;-59
2022/11/01 12:12:19;;;;;;;10.80;5.17;;;16.30;99.90;;;;;;5097419;28;20427;-61
2022/11/01 12:14:44;;;;;;;10.50;5.50;;;16.30;99.90;;;;;;5099644;28;20976;-61
2022/11/01 12:17:35;;;;;;;6.17;4.50;;;16.40;99.90;;;;;;5107989;28;20442;-61
2022/11/01 12:20:17;;;;;;;9.33;4.60;;;17.10;99.90;;;;;;5111274;27;20976;-60
2022/11/01 12:22:48;;;;;;;8.33;4.43;;;17.70;99.90;;;;;;5105950;27;20473;-62
2022/11/01 12:25:20;;;;;;;6.27;3.87;;;18.10;99.90;;;;;;5089730;28;20446;-61
2022/11/01 12:28:02;;;;;;;9.97;3.87;;;18.10;99.10;;;;;;5104196;28;20473;-60
2022/11/01 12:30:32;;;;;;;7.13;4.20;;;17.80;99.60;;;;;;5105856;27;20982;-61
2022/11/01 12:33:01;;;;;;;6.43;3.90;;;17.40;99.90;;;;;;5102921;28;20450;-60
2022/11/01 12:35:34;;;;;;;5.03;3.63;;;17.10;99.90;;;;;;5102478;28;20461;-61
2022/11/01 12:38:37;;;;;;;6.10;4.00;;;16.80;99.90;;;;;;5102968;28;20439;-61
2022/11/01 12:41:36;;;;;;;8.63;4.60;;;16.60;99.90;;;;;;5088246;28;20548;-60
2022/11/01 12:44:05;;;;;;;7.33;4.10;;;16.60;99.90;;;;;;5101159;28;20430;-61
2022/11/01 12:46:34;;;;;;;7.63;3.70;;;16.60;99.90;;;;;;5107255;28;20447;-61
2022/11/01 12:49:25;;;;;;;7.07;3.73;;;16.70;99.90;;;;;;5108440;27;20431;-61
2022/11/01 12:51:54;;;;;;;10.73;4.87;;;16.70;99.90;;;;;;5102431;28;20420;-60
2022/11/01 12:54:32;;;;;;;8.17;3.93;;;16.70;99.90;;;;;;5102433;28;20488;-60
2022/11/01 12:56:58;;;;;;;3.87;3.47;;;16.60;99.90;;;;;;5103201;27;20531;-59
2022/11/01 12:59:36;;;;;;;5.93;3.93;;;16.40;99.90;;;;;;5108126;28;20533;-60
2022/11/01 13:02:17;;;;;;;7.03;3.53;;;16.30;99.90;;;;;;5107256;28;20460;-62
2022/11/01 13:05:16;;;;;;;8.10;3.90;;;16.20;99.90;;;;;;5104331;27;20450;-61